Tiempo atmosférico en la estación meteorológica de Priego de Cordoba, Córdoba (520 m.)



Fecha
DESCASC
Temp. máxima en grados centígrados (hora)
DESCASC
Temp. mínima en grados centígrados (hora)
DESCASC
Temp. media en grados centígrados
DESCASC
Racha de viento máxima en m/sg (hora)
DESCASC
Velocidad máxima media en intervalos de 10 minutos(hora)
DESCASC
Precipitaciones diarias en mm
DESCASC
Precipitaciones de 00:00 a 06:00 en mm
DESCASC
Precipitaciones de 06:00 a 12:00 en mm
DESCASC
Precipitaciones de 12:00 a 18:00 en mm
DESCASC
Precipitaciones de 18:00 a 24:00 en mm
DESCASC
14-12-2019 12.9 (14:00) 5.1 (23:40) 9 8.33 (16:10) 5.28 (15:40) 0 0 0 0 0
13-12-2019 12.7 (16:30) 9.3 (00:00) 11 11.39 (03:30) 7.78 (02:40) 0 0 0 0 0
12-12-2019 11 (12:20) 1.4 (06:30) 6.2 11.94 (22:10) 7.78 (21:40) 0 0 0 0 0
11-12-2019 14.8 (14:50) 1.8 (00:00) 8.3 7.22 (17:30) 3.89 (12:40) 0 0 0 0 0
10-12-2019 15.6 (16:00) 2 (00:00) 8.8 7.78 (14:30) 5.28 (14:20) 0.2 0 0.2 0 0
09-12-2019 14.8 (16:10) 7.4 (00:00) 11.1 6.94 (14:20) 4.72 (18:10) 0 0 0 0 0
08-12-2019 16.3 (14:40) 2.4 (00:00) 9.3 5 (16:00) 3.89 (16:00) 0 0 0 0 0
07-12-2019 16 (13:20) 3.3 (00:00) 9.6 5.83 (16:00) 3.89 (16:00) 0 0 0 0 0
06-12-2019 16.6 (13:50) 4.4 (00:00) 10.5 6.94 (12:40) 4.17 (12:40) 0 0 0 0 0
05-12-2019 14.4 (15:00) 5.4 (00:00) 9.9 5.83 (16:20) 4.17 (16:20) 0 0 0 0 0
04-12-2019 12.9 (16:40) 5.1 (00:00) 9 7.22 (17:20) 3.89 (17:10) 0 0 0 0 0
03-12-2019 13.3 (15:10) 7 (00:00) 10.2 7.5 (15:30) 5.28 (15:30) 0 0 0 0 0
02-12-2019 14.3 (16:20) 6.4 (00:00) 10.4 8.61 (19:30) 4.44 (13:30) 3 2.8 0.2 0 0
01-12-2019 13.2 (14:20) 8.3 (00:00) 10.8 8.89 (15:10) 6.67 (15:20) 7.8 2.6 0.2 2 3
30-11-2019 20.2 (13:50) 5.5 (00:00) 12.9 7.78 (17:20) 5.56 (17:10) 0.2 0.2 0 0 0
29-11-2019 15.9 (14:50) 4.6 (00:00) 10.2 6.39 (12:40) 4.44 (12:50) 0 0 0 0 0
28-11-2019 15.1 (13:20) 6.6 (00:00) 10.9 6.39 (16:50) 3.89 (17:20) 0 0 0 0 0
27-11-2019 15.2 (15:40) 10.6 (00:00) 12.9 8.89 (14:40) 5.83 (00:10) 3 2.4 0.4 0.2 0
26-11-2019 17.5 (14:00) 8.7 (00:00) 13.1 11.39 (22:30) 8.61 (22:30) 0.2 0.2 0 0 0
25-11-2019 13.9 (15:50) 8 (00:00) 10.9 8.61 (12:30) 6.94 (12:30) 1.2 0 0.4 0.2 0.6
24-11-2019 12.9 (15:10) 3.7 (00:00) 8.3 6.67 (16:00) 3.61 (23:59) 0 0 0 0 0
23-11-2019 12.6 (16:20) 8.3 (00:00) 10.5 21.67 (03:10) 10 (03:00) 4 3.8 0 0.2 0
22-11-2019 15.1 (19:00) 10.6 (00:00) 12.9 23.89 (19:00) 13.89 (19:00) 37.6 4.2 6.6 18.4 8.4
21-11-2019 12.2 (14:50) 8 (00:00) 10.1 6.94 (01:00) 5 (01:00) 29.2 8.2 2 11.2 7.8
20-11-2019 10.6 (12:10) 1.5 (00:00) 6.1 7.22 (18:30) 4.72 (12:00) 3.2 0 0 2.4 0.8
19-11-2019 12.4 (14:20) 1.5 (00:00) 6.9 6.11 (15:10) 3.89 (16:10) 0 0 0 0 0
18-11-2019 11.4 (00:00) 3.2 (00:00) 7.3 16.11 (01:40) 10.83 (01:50) 10.8 10.8 0 0 0
17-11-2019 11.8 (23:10) 0.9 (00:00) 6.4 16.11 (23:40) 9.44 (23:40) 6.8 0 0.2 0.6 6
16-11-2019 10.5 (14:10) -0.8 (-00:0) 4.8 7.5 (16:10) 4.72 (15:00) 0 0 0 0 0

Gráficas

Temp. máximas Temp. mínimas Temp. medias Precipitaciones Rachas de viento máximas Velocidades máximas media en intervalos de 10 minutos

Datos horarios

Fecha y hora oficial Temperatura (ºC) Velocidad del viento (km/h) Dirección del viento Racha (km/h) Dirección de racha Precipitación (mm) Presión (hPa) Tendencia (hPa) Humedad (%)
2019-12-15 23:00:00 6.5 14 Sudoeste 17 Sudoeste 0 -- -- 95
2019-12-15 22:00:00 6.8 8 Sudoeste 14 Sudoeste 0 -- -- 92
2019-12-15 21:00:00 7.7 9 Sudoeste 10 Sudoeste 0 -- -- 90
2019-12-15 20:00:00 8.8 5 Sudoeste 9 Sudoeste 0 -- -- 85
2019-12-15 19:00:00 10.2 0 Calma 7 Nordeste 0 -- -- 75
2019-12-15 18:00:00 11.3 5 Nordeste 10 Nordeste 0 -- -- 69
2019-12-15 17:00:00 12.7 8 Nordeste 12 Nordeste 0 -- -- 65
2019-12-15 16:00:00 13.9 7 Nordeste 12 Norte 0 -- -- 61
2019-12-15 15:00:00 13.8 6 Norte 12 Este 0 -- -- 61
2019-12-15 14:00:00 13.9 2 Nordeste 11 Nordeste 0 -- -- 64
2019-12-15 13:00:00 12.5 5 Nordeste 13 Nordeste 0 -- -- 66
2019-12-15 12:00:00 11.5 7 Nordeste 12 Nordeste 0 -- -- 70
2019-12-15 11:00:00 8.6 0 Calma 7 Sur 0 -- -- 89
2019-12-15 10:00:00 4.4 4 Sudoeste 6 Sudoeste 0 -- -- 99
2019-12-15 09:00:00 2.6 4 Sudoeste 6 Sudoeste 0 -- -- 98
2019-12-15 08:00:00 2.4 5 Sudoeste 12 Sudoeste 0 -- -- 97
2019-12-15 07:00:00 2.7 9 Sudoeste 12 Sudoeste 0 -- -- 96
2019-12-15 06:00:00 2.4 9 Sudoeste 10 Sudoeste 0 -- -- 97
2019-12-15 05:00:00 2.9 5 Sudoeste 10 Sudoeste 0 -- -- 97
2019-12-15 04:00:00 3.1 6 Sudoeste 8 Sudoeste 0 -- -- 96
2019-12-15 03:00:00 3.4 8 Sudoeste 12 Sudoeste 0 -- -- 95
2019-12-15 02:00:00 4 5 Sudoeste 11 Oeste 0 -- -- 96
2019-12-15 01:00:00 4.5 7 Sudoeste 11 Sudoeste 0 -- -- 95
2019-12-15 00:00:00 5.3 8 Sudoeste 15 Sudoeste 0 -- -- 92
2019-12-14 23:00:00 6.1 8 Sudoeste 12 Oeste 0 -- -- 91
2019-12-14 22:00:00 6.9 5 Sudoeste 8 Sudoeste 0 -- -- 87
2019-12-14 21:00:00 7.9 2 Sudoeste 8 Noroeste 0 -- -- 81
2019-12-14 20:00:00 8.7 0 Calma 6 Noroeste 0 -- -- 77
2019-12-14 19:00:00 8.9 6 Nordeste 15 Norte 0 -- -- 76
2019-12-14 18:00:00 10.4 9 Norte 19 Norte 0 -- -- 70
2019-12-14 17:00:00 11 15 Nordeste 30 Norte 0 -- -- 72
2019-12-14 16:00:00 12.3 17 Nordeste 26 Nordeste 0 -- -- 69
2019-12-14 15:00:00 12.4 11 Nordeste 19 Norte 0 -- -- 68
2019-12-14 14:00:00 12.9 9 Este 14 Este 0 -- -- 66
2019-12-14 13:00:00 11.7 8 Nordeste 13 Nordeste 0 -- -- 71
2019-12-14 12:00:00 11.3 3 Este 9 Este 0 -- -- 74
2019-12-14 11:00:00 10.8 5 Este 9 Noroeste 0 -- -- 80
2019-12-14 10:00:00 10.2 10 Norte 18 Norte 0 -- -- 84
2019-12-14 09:00:00 10.3 2 Norte 15 Noroeste 0 -- -- 88
2019-12-14 08:00:00 10.2 4 Noroeste 12 Norte 0 -- -- 89
2019-12-14 07:00:00 10.2 0 Calma 3 Este 0 -- -- 92
2019-12-14 06:00:00 10.4 2 Oeste 6 Este 0 -- -- 91
2019-12-14 05:00:00 10.4 0 Calma 6 Sudeste 0 -- -- 91
2019-12-14 04:00:00 10.4 4 Nordeste 8 Norte 0 -- -- 91
2019-12-14 03:00:00 10.8 6 Sudoeste 11 Sur 0 -- -- 90
2019-12-14 02:00:00 10.6 6 Sudoeste 15 Sudoeste 0 -- -- 90
2019-12-14 01:00:00 10.6 8 Sudoeste 12 Sudoeste 0 -- -- 90
2019-12-14 00:00:00 11 4 Sudoeste 11 Sudoeste 0 -- -- 89
2019-12-13 23:00:00 11.3 10 Sudoeste 12 Sudoeste 0 -- -- 89
2019-12-13 22:00:00 11.6 6 Sudoeste 18 Sudoeste 0 -- -- 87
2019-12-13 21:00:00 11.7 11 Sudoeste 19 Sudoeste 0 -- -- 87
2019-12-13 20:00:00 12 8 Sudoeste 14 Sudoeste 0 -- -- 83
2019-12-13 19:00:00 12.1 9 Sudoeste 16 Oeste 0 -- -- 84
2019-12-13 18:00:00 12.3 6 Sur 17 Sudoeste 0 -- -- 84
2019-12-13 17:00:00 12.7 13 Sudoeste 21 Sudoeste 0 -- -- 81
2019-12-13 16:00:00 12.5 19 Sudoeste 26 Sudoeste 0 -- -- 83
2019-12-13 15:00:00 12.4 18 Sudoeste 28 Sudoeste 0 -- -- 83
2019-12-13 14:00:00 12.5 17 Sudoeste 25 Sudoeste 0 -- -- 82
2019-12-13 13:00:00 12.4 13 Sudoeste 20 Oeste 0 -- -- 81
2019-12-13 12:00:00 12.2 12 Sudoeste 31 Oeste 0 -- -- 82
2019-12-13 11:00:00 12.1 8 Oeste 36 Noroeste 0 -- -- 80
2019-12-13 10:00:00 11.5 11 Sudoeste 24 Sudoeste 0 -- -- 83
2019-12-13 09:00:00 11.2 9 Sudoeste 22 Sur 0 -- -- 86
2019-12-13 08:00:00 10.8 11 Sur 26 Sur 0 -- -- 95
2019-12-13 07:00:00 10.6 13 Sur 26 Sur 0 -- -- 96
2019-12-13 06:00:00 10.3 15 Sur 30 Sudoeste 0 -- -- 97
2019-12-13 05:00:00 10.1 18 Sudoeste 34 Sudoeste 0 -- -- 97
2019-12-13 04:00:00 10 22 Sudoeste 41 Sudoeste 0 -- -- 96
2019-12-13 03:00:00 9.9 22 Sudoeste 39 Sudoeste 0 -- -- 96
2019-12-13 02:00:00 9.8 23 Sudoeste 41 Sudoeste 0 -- -- 94
2019-12-13 01:00:00 9.4 27 Sudoeste 37 Sudoeste 0 -- -- 93
2019-12-13 00:00:00 9.3 28 Sudoeste 38 Sudoeste 0 -- -- 92
2019-12-12 23:00:00 9.7 26 Sudoeste 43 Sudoeste 0 -- -- 85
2019-12-12 22:00:00 9.7 28 Sudoeste 41 Sudoeste 0 -- -- 84
2019-12-12 21:00:00 9.5 24 Sudoeste 42 Sudoeste 0 -- -- 84
2019-12-12 20:00:00 9.8 15 Sudoeste 31 Sudoeste 0 -- -- 77
2019-12-12 19:00:00 9.6 12 Sur 23 Sudoeste 0 -- -- 80
2019-12-12 18:00:00 9.4 14 Sudoeste 25 Sudoeste 0 -- -- 80
2019-12-12 17:00:00 9.5 15 Sudoeste 32 Sudoeste 0 -- -- 76
2019-12-12 16:00:00 9.6 19 Sudoeste 29 Sudoeste 0 -- -- 72
2019-12-12 15:00:00 10.2 13 Sudoeste 20 Sudoeste 0 -- -- 70
2019-12-12 14:00:00 10.5 10 Oeste 31 Oeste 0 -- -- 66
2019-12-12 13:00:00 10.4 13 Norte 21 Norte 0 -- -- 64
2019-12-12 12:00:00 10.2 5 Nordeste 10 Nordeste 0 -- -- 65
2019-12-12 11:00:00 8.1 0 Calma 6 Sudeste 0 -- -- 79
2019-12-12 10:00:00 3.8 3 Sur 9 Noroeste 0 -- -- 95
2019-12-12 09:00:00 2.5 5 Sudeste 12 Sur 0 -- -- 94
2019-12-12 08:00:00 2.1 7 Sudoeste 12 Sur 0 -- -- 94
2019-12-12 07:00:00 1.9 9 Sur 14 Sur 0 -- -- 96
2019-12-12 06:00:00 1.5 5 Sudeste 10 Oeste 0 -- -- 95
2019-12-12 05:00:00 2.1 9 Sudoeste 12 Sudoeste 0 -- -- 94
2019-12-12 04:00:00 2.7 5 Sudoeste 10 Sudoeste 0 -- -- 94
2019-12-12 03:00:00 2.9 6 Sudoeste 10 Sudoeste 0 -- -- 93
2019-12-12 02:00:00 3.6 8 Sudoeste 9 Sudoeste 0 -- -- 92
2019-12-12 01:00:00 4.7 6 Sudoeste 10 Oeste 0 -- -- 88
2019-12-12 00:00:00 6.8 2 Noroeste 14 Nordeste 0 -- -- 80
2019-12-11 23:00:00 8.2 11 Norte 22 Norte 0 -- -- 75
2019-12-11 22:00:00 7.9 5 Nordeste 21 Norte 0 -- -- 79
2019-12-11 21:00:00 9 12 Nordeste 25 Nordeste 0 -- -- 79
2019-12-11 20:00:00 10.5 13 Noroeste 26 Norte 0 -- -- 74
2019-12-11 19:00:00 11 3 Noroeste 18 Oeste 0 -- -- 76
2019-12-11 18:00:00 11.5 10 Sudoeste 26 Oeste 0 -- -- 74
2019-12-11 17:00:00 13.2 7 Oeste 17 Norte 0 -- -- 66
2019-12-11 16:00:00 13.7 4 Noroeste 13 Norte 0 -- -- 58
2019-12-11 15:00:00 14.5 4 Norte 13 Sudoeste 0 -- -- 45
2019-12-11 14:00:00 13.9 3 Noroeste 15 Sudoeste 0 -- -- 48
2019-12-11 13:00:00 14 9 Sudoeste 20 Sudoeste 0 -- -- 53
2019-12-11 12:00:00 13.8 2 Sur 12 Sudoeste 0 -- -- 55
2019-12-11 11:00:00 10.6 0 Calma 6 Sudoeste 0 -- -- 64
2019-12-11 10:00:00 5.2 7 Sudoeste 14 Sudoeste 0 -- -- 83
2019-12-11 09:00:00 2 10 Sudoeste 12 Sudoeste 0 -- -- 89
2019-12-11 08:00:00 2.2 10 Sudoeste 14 Sudoeste 0 -- -- 89
2019-12-11 07:00:00 1.8 10 Sudoeste 13 Sudoeste 0 -- -- 90
2019-12-11 06:00:00 2 9 Sudoeste 13 Sudoeste 0 -- -- 88
2019-12-11 05:00:00 2.6 10 Sudoeste 12 Sudoeste 0 -- -- 86
2019-12-11 04:00:00 2.9 8 Sudoeste 11 Sudoeste 0 -- -- 85
2019-12-11 03:00:00 3 8 Sudoeste 10 Sudoeste 0 -- -- 86
2019-12-11 02:00:00 3.7 9 Sudoeste 15 Sudoeste 0 -- -- 82
2019-12-11 01:00:00 3.7 13 Sudoeste 14 Sudoeste 0 -- -- 86
2019-12-11 00:00:00 4.4 9 Sudoeste 14 Sudoeste 0 -- -- 83
2019-12-10 23:00:00 4.7 11 Sudoeste 14 Sudoeste 0 -- -- 84
2019-12-10 22:00:00 5.3 10 Sudoeste 14 Oeste 0 -- -- 83
2019-12-10 21:00:00 6.4 8 Sudoeste 9 Sudoeste 0 -- -- 80
2019-12-10 20:00:00 7.9 4 Sudoeste 13 Sudoeste 0 -- -- 74
2019-12-10 19:00:00 10.1 6 Sudoeste 13 Nordeste 0 -- -- 62
2019-12-10 18:00:00 12.8 11 Nordeste 17 Nordeste 0 -- -- 49
2019-12-10 17:00:00 15.1 9 Nordeste 20 Este 0 -- -- 42
2019-12-10 16:00:00 15.6 10 Nordeste 23 Nordeste 0 -- -- 44
2019-12-10 15:00:00 14.7 15 Nordeste 28 Nordeste 0 -- -- 49
2019-12-10 14:00:00 14.7 14 Nordeste 22 Nordeste 0 -- -- 53
2019-12-10 13:00:00 13.9 10 Nordeste 14 Norte 0 -- -- 53
2019-12-10 12:00:00 12.2 4 Norte 6 Norte 0 -- -- 60
2019-12-10 11:00:00 8.3 5 Sudoeste 10 Sudoeste 0 -- -- 84
2019-12-10 10:00:00 4.1 8 Sudoeste 12 Sudoeste 0.2 -- -- 97
2019-12-10 09:00:00 2.1 10 Sudoeste 13 Sudoeste 0 -- -- 97
2019-12-10 08:00:00 3.1 4 Sudoeste 5 Norte 0 -- -- 97
2019-12-10 07:00:00 3.3 5 Sudoeste 14 Sudoeste 0 -- -- 97
2019-12-10 06:00:00 4.1 7 Sudoeste 10 Sudoeste 0 -- -- 97
2019-12-10 05:00:00 5.3 4 Oeste 8 Sudoeste 0 -- -- 97
2019-12-10 04:00:00 6.1 4 Sudoeste 5 Sudoeste 0 -- -- 96
2019-12-10 03:00:00 6.5 0 Calma 8 Sudoeste 0 -- -- 96
2019-12-10 02:00:00 7 4 Sudoeste 7 Sudoeste 0 -- -- 96
2019-12-10 01:00:00 6.5 7 Sudoeste 9 Sudoeste 0 -- -- 95
2019-12-10 00:00:00 7.4 3 Sudoeste 8 Sudoeste 0 -- -- 94
2019-12-09 23:00:00 7.8 3 Oeste 6 Sudoeste 0 -- -- 93
2019-12-09 22:00:00 8.2 5 Sudoeste 8 Sudoeste 0 -- -- 93
2019-12-09 21:00:00 9 6 Sudoeste 8 Sudoeste 0 -- -- 91
2019-12-09 20:00:00 10 4 Nordeste 13 Nordeste 0 -- -- 87
2019-12-09 19:00:00 11.1 9 Nordeste 23 Nordeste 0 -- -- 83
2019-12-09 18:00:00 12.4 14 Nordeste 21 Nordeste 0 -- -- 78
2019-12-09 17:00:00 14.3 13 Nordeste 22 Nordeste 0 -- -- 73
2019-12-09 16:00:00 14.7 14 Nordeste 21 Nordeste 0 -- -- 71
2019-12-09 15:00:00 14.3 12 Nordeste 25 Nordeste 0 -- -- 75
2019-12-09 14:00:00 14.3 17 Nordeste 24 Nordeste 0 -- -- 75
2019-12-09 13:00:00 13.6 10 Nordeste 16 Nordeste 0 -- -- 77
2019-12-09 12:00:00 12.8 6 Nordeste 11 Nordeste 0 -- -- 78
2019-12-09 11:00:00 11.6 6 Nordeste 12 Nordeste 0 -- -- 87
2019-12-09 10:00:00 10.4 0 Calma 5 Sudoeste 0 -- -- 91
2019-12-09 09:00:00 10 0 Calma 8 Norte 0 -- -- 91
2019-12-09 08:00:00 9.7 7 Norte 12 Nordeste 0 -- -- 91
2019-12-09 07:00:00 9.5 2 Nordeste 8 Norte 0 -- -- 89
2019-12-09 06:00:00 9.3 4 Nordeste 6 Nordeste 0 -- -- 88
2019-12-09 05:00:00 9.3 4 Sudoeste 5 Sudoeste 0 -- -- 88
2019-12-09 04:00:00 9.1 4 Sudoeste 6 Sudoeste 0 -- -- 88
2019-12-09 03:00:00 8.8 5 Sudoeste 9 Oeste 0 -- -- 90
2019-12-09 02:00:00 8.6 2 Sur 10 Noroeste 0 -- -- 90
2019-12-09 01:00:00 8.9 0 Calma 5 Oeste 0 -- -- 88
2019-12-09 00:00:00 8.6 4 Sudoeste 7 Oeste 0 -- -- 88
2019-12-08 23:00:00 9.1 0 Calma 8 Sudoeste 0 -- -- 87
2019-12-08 22:00:00 9.3 5 Sudoeste 10 Sudoeste 0 -- -- 86
2019-12-08 21:00:00 10.2 4 Sudoeste 6 Norte 0 -- -- 83
2019-12-08 20:00:00 11.1 5 Nordeste 10 Este 0 -- -- 78
2019-12-08 19:00:00 11.6 5 Este 13 Nordeste 0 -- -- 77
2019-12-08 18:00:00 12.4 8 Nordeste 16 Este 0 -- -- 76
2019-12-08 17:00:00 13.7 10 Nordeste 18 Nordeste 0 -- -- 72
2019-12-08 16:00:00 15 14 Nordeste 18 Nordeste 0 -- -- 66
2019-12-08 15:00:00 16.1 5 Norte 11 Norte 0 -- -- 58
2019-12-08 14:00:00 15.3 3 Norte 12 Nordeste 0 -- -- 58
2019-12-08 13:00:00 14.6 5 Nordeste 10 Nordeste 0 -- -- 62
2019-12-08 12:00:00 12.6 4 Norte 7 Norte 0 -- -- 73
2019-12-08 11:00:00 9.2 0 Calma 8 Sudoeste 0 -- -- 85
2019-12-08 10:00:00 5.2 7 Sudoeste 9 Sudoeste 0 -- -- 98
2019-12-08 09:00:00 2.9 10 Sudoeste 12 Sudoeste 0 -- -- 98
2019-12-08 08:00:00 2.5 10 Sudoeste 13 Sudoeste 0 -- -- 97
2019-12-08 07:00:00 3.4 7 Sudoeste 8 Sudoeste 0 -- -- 96
2019-12-08 06:00:00 3.6 5 Sudoeste 10 Sudoeste 0 -- -- 96
2019-12-08 05:00:00 4.2 9 Sudoeste 11 Sudoeste 0 -- -- 95
2019-12-08 04:00:00 4 6 Sudoeste 15 Sudoeste 0 -- -- 97
2019-12-08 03:00:00 3.8 8 Sudoeste 12 Sudoeste 0 -- -- 95
2019-12-08 02:00:00 4.4 6 Sudoeste 10 Sudoeste 0 -- -- 94
2019-12-08 01:00:00 4.6 9 Sudoeste 13 Sudoeste 0 -- -- 94
2019-12-08 00:00:00 5 10 Sudoeste 12 Sudoeste 0 -- -- 95
2019-12-07 23:00:00 6.4 4 Sudoeste 6 Sudoeste 0 -- -- 92
2019-12-07 22:00:00 6.7 4 Sudoeste 10 Sudoeste 0 -- -- 91
2019-12-07 21:00:00 7.7 9 Sudoeste 10 Sudoeste 0 -- -- 89
2019-12-07 20:00:00 9.1 7 Sudoeste 9 Oeste 0 -- -- 86
2019-12-07 19:00:00 11 3 Nordeste 14 Nordeste 0 -- -- 80
2019-12-07 18:00:00 12.1 10 Este 19 Nordeste 0 -- -- 76
2019-12-07 17:00:00 13.9 13 Nordeste 19 Nordeste 0 -- -- 71
2019-12-07 16:00:00 14.7 14 Nordeste 21 Nordeste 0 -- -- 68
2019-12-07 15:00:00 15.7 12 Nordeste 17 Nordeste 0 -- -- 64
2019-12-07 14:00:00 15.6 9 Nordeste 17 Nordeste 0 -- -- 59
2019-12-07 13:00:00 15.6 5 Sur 8 Sur 0 -- -- 58
2019-12-07 12:00:00 13.1 3 Sudoeste 8 Sudoeste 0 -- -- 71
2019-12-07 11:00:00 9.4 5 Sudoeste 8 Sudoeste 0 -- -- 86
2019-12-07 10:00:00 5.8 5 Sudoeste 12 Sudoeste 0 -- -- 97
2019-12-07 09:00:00 3.4 8 Sudoeste 14 Sudoeste 0 -- -- 97
2019-12-07 08:00:00 3.7 13 Sudoeste 14 Sudoeste 0 -- -- 98
2019-12-07 07:00:00 3.6 8 Sudoeste 10 Sudoeste 0 -- -- 96
2019-12-07 06:00:00 4.4 5 Sudoeste 6 Sudoeste 0 -- -- 95
2019-12-07 05:00:00 4.8 4 Sudoeste 8 Sudoeste 0 -- -- 95
2019-12-07 04:00:00 5.3 7 Sudoeste 9 Sudoeste 0 -- -- 94
2019-12-07 03:00:00 5.5 8 Sudoeste 10 Sudoeste 0 -- -- 94
2019-12-07 02:00:00 5.5 6 Sudoeste 11 Sudoeste 0 -- -- 94
2019-12-07 01:00:00 6.3 11 Sudoeste 13 Sudoeste 0 -- -- 92
2019-12-07 00:00:00 6.6 10 Sudoeste 13 Sudoeste 0 -- -- 92
2019-12-06 23:00:00 7 9 Sudoeste 17 Sudoeste 0 -- -- 92
2019-12-06 22:00:00 7.7 13 Sudoeste 15 Sudoeste 0 -- -- 90
2019-12-06 21:00:00 8.6 8 Sudoeste 10 Sudoeste 0 -- -- 89
2019-12-06 20:00:00 10.2 8 Sudoeste 10 Sudoeste 0 -- -- 83
2019-12-06 19:00:00 12.3 7 Sudoeste 8 Oeste 0 -- -- 73
2019-12-06 18:00:00 13.7 7 Nordeste 17 Norte 0 -- -- 65
2019-12-06 17:00:00 15.2 12 Nordeste 18 Norte 0 -- -- 62
2019-12-06 16:00:00 16.2 12 Norte 18 Nordeste 0 -- -- 57
2019-12-06 15:00:00 16.4 9 Nordeste 17 Nordeste 0 -- -- 57
2019-12-06 14:00:00 16.6 12 Nordeste 20 Este 0 -- -- 56
2019-12-06 13:00:00 15.7 12 Nordeste 25 Nordeste 0 -- -- 55
2019-12-06 12:00:00 14.5 10 Nordeste 17 Nordeste 0 -- -- 62
2019-12-06 11:00:00 10.4 4 Sudoeste 10 Sudoeste 0 -- -- 78
2019-12-06 10:00:00 6.6 6 Sudoeste 11 Sudoeste 0 -- -- 91
2019-12-06 09:00:00 4.6 6 Sudoeste 9 Sudoeste 0 -- -- 94
2019-12-06 08:00:00 4.9 6 Sudoeste 12 Sudoeste 0 -- -- 92
2019-12-06 07:00:00 5.1 9 Sudoeste 11 Sudoeste 0 -- -- 91
2019-12-06 06:00:00 5.5 9 Sudoeste 10 Sudoeste 0 -- -- 90
2019-12-06 05:00:00 7.2 2 Nordeste 12 Sudoeste 0 -- -- 85
2019-12-06 04:00:00 7 9 Sudoeste 16 Oeste 0 -- -- 86
2019-12-06 03:00:00 7.7 10 Sudoeste 15 Oeste 0 -- -- 84
2019-12-06 02:00:00 8.8 5 Sudoeste 7 Oeste 0 -- -- 79
2019-12-06 01:00:00 9.3 4 Sur 12 Oeste 0 -- -- 77
2019-12-06 00:00:00 10 6 Oeste 17 Sudoeste 0 -- -- 76
2019-12-05 23:00:00 9.1 3 Noroeste 14 Sudoeste 0 -- -- 85
2019-12-05 22:00:00 8.8 6 Sudoeste 9 Sudoeste 0 -- -- 92
2019-12-05 21:00:00 10 0 Calma 6 Sudoeste 0 -- -- 85
2019-12-05 20:00:00 10.8 6 Sudoeste 11 Este 0 -- -- 85
2019-12-05 19:00:00 11.2 8 Nordeste 13 Nordeste 0 -- -- 81
2019-12-05 18:00:00 12 11 Norte 18 Norte 0 -- -- 75
2019-12-05 17:00:00 12.3 7 Nordeste 21 Norte 0 -- -- 75
2019-12-05 16:00:00 12.8 13 Norte 21 Norte 0 -- -- 72
2019-12-05 15:00:00 14.4 7 Nordeste 15 Nordeste 0 -- -- 60
2019-12-05 14:00:00 13.6 6 Nordeste 13 Nordeste 0 -- -- 65
2019-12-05 13:00:00 13.2 8 Nordeste 13 Nordeste 0 -- -- 67
2019-12-05 12:00:00 11.7 5 Norte 9 Norte 0 -- -- 71
2019-12-05 11:00:00 10.8 5 Nordeste 8 Nordeste 0 -- -- 79
2019-12-05 10:00:00 7.4 2 Norte 7 Sudeste 0 -- -- 96
2019-12-05 09:00:00 5.4 0 Calma 8 Sudoeste 0 -- -- 97
2019-12-05 08:00:00 5.6 6 Norte 8 Norte 0 -- -- 97
2019-12-05 07:00:00 5.8 5 Sur 12 Oeste 0 -- -- 96
2019-12-05 06:00:00 5.8 4 Sudoeste 10 Oeste 0 -- -- 96
2019-12-05 05:00:00 6 2 Norte 8 Nordeste 0 -- -- 96
2019-12-05 04:00:00 5.9 4 Sudoeste 9 Sur 0 -- -- 95
2019-12-05 03:00:00 6 9 Sudoeste 10 Sudoeste 0 -- -- 95
2019-12-05 02:00:00 6.3 4 Oeste 6 Oeste 0 -- -- 95
2019-12-05 01:00:00 6.4 2 Sur 9 Oeste 0 -- -- 93
2019-12-05 00:00:00 6.5 8 Sudoeste 10 Sudoeste 0 -- -- 93
2019-12-04 23:00:00 6.4 3 Sudoeste 10 Oeste 0 -- -- 94
2019-12-04 22:00:00 6.1 5 Sudoeste 12 Sudoeste 0 -- -- 94
2019-12-04 21:00:00 6.8 6 Sur 9 Sudoeste 0 -- -- 93
2019-12-04 20:00:00 8.1 3 Sur 8 Sudoeste 0 -- -- 88
2019-12-04 19:00:00 9.1 0 Calma 10 Nordeste 0 -- -- 83
2019-12-04 18:00:00 10.1 7 Nordeste 26 Norte 0 -- -- 81
2019-12-04 17:00:00 11.8 13 Norte 24 Norte 0 -- -- 74
2019-12-04 16:00:00 12.5 6 Nordeste 19 Norte 0 -- -- 70
2019-12-04 15:00:00 12.3 6 Nordeste 15 Norte 0 -- -- 73
2019-12-04 14:00:00 12.2 2 Oeste 6 Sur 0 -- -- 75
2019-12-04 13:00:00 10.1 0 Calma 12 Nordeste 0 -- -- 84
2019-12-04 12:00:00 9.2 8 Nordeste 17 Nordeste 0 -- -- 90
2019-12-04 11:00:00 8.7 3 Nordeste 15 Sudoeste 0 -- -- 90
2019-12-04 10:00:00 6.8 10 Sudoeste 12 Sudoeste 0 -- -- 98
2019-12-04 09:00:00 5.9 4 Sur 10 Sudoeste 0 -- -- 98
2019-12-04 08:00:00 5.6 7 Norte 9 Norte 0 -- -- 97
2019-12-04 07:00:00 5.6 0 Calma 5 Sudoeste 0 -- -- 97
2019-12-04 06:00:00 5.1 4 Oeste 9 Nordeste 0 -- -- 97
2019-12-04 05:00:00 5.7 6 Nordeste 9 Nordeste 0 -- -- 96
2019-12-04 04:00:00 6.1 4 Sudoeste 7 Sudoeste 0 -- -- 96
2019-12-04 03:00:00 6.4 2 Noroeste 11 Nordeste 0 -- -- 94
2019-12-04 02:00:00 6.4 7 Nordeste 9 Norte 0 -- -- 94
2019-12-04 01:00:00 6.7 2 Oeste 9 Sudoeste 0 -- -- 94
2019-12-04 00:00:00 7 6 Sudoeste 9 Sudoeste 0 -- -- 93
2019-12-03 23:00:00 8 0 Calma 9 Norte 0 -- -- 88
2019-12-03 22:00:00 9 7 Nordeste 15 Este 0 -- -- 84
2019-12-03 21:00:00 10.1 9 Nordeste 19 Norte 0 -- -- 81
2019-12-03 20:00:00 10.7 11 Norte 18 Norte 0 -- -- 77
2019-12-03 19:00:00 11.1 5 Nordeste 12 Nordeste 0 -- -- 76
2019-12-03 18:00:00 11.6 6 Nordeste 19 Norte 0 -- -- 74
2019-12-03 17:00:00 12.5 13 Nordeste 24 Norte 0 -- -- 69
2019-12-03 16:00:00 12.5 16 Norte 27 Norte 0 -- -- 72
2019-12-03 15:00:00 13.2 11 Nordeste 19 Nordeste 0 -- -- 71
2019-12-03 14:00:00 12.4 11 Nordeste 17 Nordeste 0 -- -- 77
2019-12-03 13:00:00 11.4 8 Nordeste 14 Nordeste 0 -- -- 82
2019-12-03 12:00:00 9.8 4 Nordeste 15 Norte 0 -- -- 89
2019-12-03 11:00:00 9.5 3 Nordeste 6 Este 0 -- -- 90
2019-12-03 10:00:00 8.3 5 Norte 9 Nordeste 0 -- -- 93
2019-12-03 09:00:00 7.5 4 Nordeste 9 Nordeste 0 -- -- 93
2019-12-03 08:00:00 7.6 6 Sudoeste 14 Este 0 -- -- 91
2019-12-03 07:00:00 7.6 0 Calma 10 Sudoeste 0 -- -- 92
2019-12-03 06:00:00 8.7 9 Este 15 Nordeste 0 -- -- 89
2019-12-03 05:00:00 9 12 Nordeste 15 Nordeste 0 -- -- 88
2019-12-03 04:00:00 8.7 2 Nordeste 13 Nordeste 0 -- -- 88
2019-12-03 03:00:00 9.2 11 Este 14 Nordeste 0 -- -- 87
2019-12-03 02:00:00 9 11 Nordeste 18 Nordeste 0 -- -- 87
2019-12-03 01:00:00 8.5 6 Nordeste 10 Nordeste 0 -- -- 86
2019-12-03 00:00:00 8.6 3 Norte 6 Sudoeste 0 -- -- 83
2019-12-02 23:00:00 8.2 5 Norte 8 Nordeste 0 -- -- 85
2019-12-02 22:00:00 9.6 4 Sudoeste 7 Sudoeste 0 -- -- 79
2019-12-02 21:00:00 10.7 5 Norte 30 Este 0 -- -- 73
2019-12-02 20:00:00 11.6 10 Nordeste 31 Este 0 -- -- 67
2019-12-02 19:00:00 11.6 0 Calma 12 Nordeste 0 -- -- 77
2019-12-02 18:00:00 12.2 8 Nordeste 23 Norte 0 -- -- 76
2019-12-02 17:00:00 13.5 10 Norte 21 Norte 0 -- -- 68
2019-12-02 16:00:00 13.9 7 Norte 21 Norte 0 -- -- 66
2019-12-02 15:00:00 13.9 11 Nordeste 20 Nordeste 0 -- -- 65
2019-12-02 14:00:00 13 10 Nordeste 22 Nordeste 0 -- -- 72
2019-12-02 13:00:00 11.9 12 Nordeste 17 Norte 0 -- -- 79
2019-12-02 12:00:00 11.4 6 Norte 11 Norte 0 -- -- 81
2019-12-02 11:00:00 10.7 0 Calma 5 Sudoeste 0 -- -- 98
2019-12-02 10:00:00 8 0 Calma 7 Sudoeste 0 -- -- 99
2019-12-02 09:00:00 6.4 3 Norte 6 Oeste 0 -- -- 97
2019-12-02 08:00:00 7.1 0 Calma 10 Nordeste 0.2 -- -- 97
2019-12-02 07:00:00 7.6 7 Nordeste 10 Nordeste 0 -- -- 97
2019-12-02 06:00:00 8 5 Este 10 Norte 0.6 -- -- 97
2019-12-02 05:00:00 8.3 5 Norte 6 Norte 0.6 -- -- 96
2019-12-02 04:00:00 8.5 3 Norte 9 Sur 0.2 -- -- 95
2019-12-02 03:00:00 8.6 10 Sudoeste 15 Sudoeste 1.4 -- -- 94
2019-12-02 02:00:00 8.9 4 Sudoeste 7 Sudoeste 0 -- -- 93
2019-12-02 01:00:00 8.7 5 Sudoeste 11 Sur 0 -- -- 94
2019-12-02 00:00:00 8.7 8 Sudoeste 16 Sur 0 -- -- 94
2019-12-01 23:00:00 8.8 12 Sur 19 Sudoeste 0 -- -- 94
2019-12-01 22:00:00 8.6 10 Sudoeste 14 Sur 0 -- -- 95
2019-12-01 21:00:00 8.8 5 Norte 14 Sur 0 -- -- 94
2019-12-01 20:00:00 9.2 10 Sur 20 Sudoeste 0 -- -- 92
2019-12-01 19:00:00 8.9 14 Sudoeste 28 Sudoeste 3 -- -- 92
2019-12-01 18:00:00 10.1 12 Sudoeste 24 Sudoeste 2 -- -- 91
2019-12-01 17:00:00 10.8 17 Sudoeste 25 Sudoeste 0 -- -- 86
2019-12-01 16:00:00 10.8 22 Sudoeste 32 Sudoeste 0 -- -- 84
2019-12-01 15:00:00 12.7 20 Sudoeste 30 Sudoeste 0 -- -- 67
2019-12-01 14:00:00 12.9 21 Sudoeste 27 Sudoeste 0 -- -- 69
2019-12-01 13:00:00 12.6 19 Sudoeste 28 Sudoeste 0 -- -- 66
2019-12-01 12:00:00 12.4 18 Sudoeste 26 Sudoeste 0 -- -- 68
2019-12-01 11:00:00 11.1 4 Sur 9 Sudoeste 0 -- -- 85
2019-12-01 10:00:00 9.4 6 Sudoeste 12 Sudoeste 0 -- -- 89
2019-12-01 09:00:00 8.6 4 Sudoeste 11 Sudoeste 0 -- -- 92
2019-12-01 08:00:00 8.7 7 Sudoeste 10 Sudoeste 0.2 -- -- 91
2019-12-01 07:00:00 10.3 6 Sudoeste 12 Sudoeste 0 -- -- 94
2019-12-01 06:00:00 10.8 5 Oeste 21 Sur 0 -- -- 93
2019-12-01 05:00:00 11.2 14 Sur 19 Sudoeste 0.8 -- -- 95
2019-12-01 04:00:00 10.9 2 Sudoeste 12 Sudoeste 1.4 -- -- 96
2019-12-01 03:00:00 11 10 Sudoeste 21 Sudoeste 0.4 -- -- 95
2019-12-01 02:00:00 11.9 18 Sudoeste 25 Sudoeste 0 -- -- 89
2019-12-01 01:00:00 12.3 11 Sudoeste 15 Sudoeste 0 -- -- 84
2019-12-01 00:00:00 12.6 3 Sudoeste 18 Sur 0 -- -- 82
2019-11-30 23:00:00 12.9 11 Sur 20 Sur 0 -- -- 81
2019-11-30 22:00:00 12.7 11 Sur 20 Sudoeste 0 -- -- 84
2019-11-30 21:00:00 12.8 8 Sudoeste 13 Sudoeste 0 -- -- 83
2019-11-30 20:00:00 13.2 6 Sudoeste 19 Sur 0 -- -- 82
2019-11-30 19:00:00 13.3 12 Sur 19 Sur 0 -- -- 80
2019-11-30 18:00:00 14.5 14 Sudoeste 28 Sudoeste 0 -- -- 71
2019-11-30 17:00:00 17.6 18 Oeste 27 Oeste 0 -- -- 60
2019-11-30 16:00:00 19 14 Sudoeste 26 Sudoeste 0 -- -- 55
2019-11-30 15:00:00 19.4 18 Sudoeste 25 Sudoeste 0 -- -- 53
2019-11-30 14:00:00 20.1 18 Sudoeste 26 Sudoeste 0 -- -- 38
2019-11-30 13:00:00 18.8 5 Sudoeste 11 Sur 0 -- -- 53
2019-11-30 12:00:00 15.2 9 Sudoeste 13 Sudoeste 0 -- -- 74
2019-11-30 11:00:00 11.5 7 Sudoeste 12 Sudoeste 0 -- -- 89
2019-11-30 10:00:00 7.8 13 Sudoeste 15 Sudoeste 0 -- -- 99
2019-11-30 09:00:00 6.4 3 Sudoeste 6 Sudoeste 0 -- -- 99
2019-11-30 08:00:00 6.4 5 Sudoeste 12 Sudoeste 0 -- -- 99
2019-11-30 07:00:00 5.6 9 Sudoeste 12 Sudoeste 0 -- -- 99
2019-11-30 06:00:00 5.9 11 Sudoeste 13 Sudoeste 0 -- -- 98
2019-11-30 05:00:00 5.8 8 Sudoeste 9 Sudoeste 0.2 -- -- 98
2019-11-30 04:00:00 6 5 Sudoeste 8 Sudoeste 0 -- -- 98
2019-11-30 03:00:00 6.1 5 Sudoeste 13 Sudoeste 0 -- -- 98
2019-11-30 02:00:00 6.6 11 Sudoeste 12 Sudoeste 0 -- -- 97
2019-11-30 01:00:00 7.3 4 Sudoeste 9 Sudoeste 0 -- -- 97
2019-11-30 00:00:00 7.7 6 Sudoeste 10 Sudoeste 0 -- -- 96
2019-11-29 23:00:00 8.3 5 Sudoeste 8 Sudoeste 0 -- -- 95
2019-11-29 22:00:00 9 5 Sudoeste 8 Sudoeste 0 -- -- 93
2019-11-29 21:00:00 10 6 Sudoeste 7 Sudoeste 0 -- -- 91
2019-11-29 20:00:00 11.2 7 Sudoeste 14 Nordeste 0 -- -- 88
2019-11-29 19:00:00 12.1 11 Nordeste 14 Nordeste 0 -- -- 84
2019-11-29 18:00:00 13.5 10 Nordeste 18 Norte 0 -- -- 79
2019-11-29 17:00:00 14.9 14 Nordeste 19 Nordeste 0 -- -- 70
2019-11-29 16:00:00 15.7 12 Nordeste 22 Nordeste 0 -- -- 69
2019-11-29 15:00:00 15.9 13 Nordeste 21 Nordeste 0 -- -- 67
2019-11-29 14:00:00 15.6 12 Norte 21 Nordeste 0 -- -- 68
2019-11-29 13:00:00 15.2 15 Nordeste 23 Nordeste 0 -- -- 67
2019-11-29 12:00:00 14.9 10 Nordeste 14 Nordeste 0 -- -- 69
2019-11-29 11:00:00 12.6 3 Este 6 Sudoeste 0 -- -- 85
2019-11-29 10:00:00 7.5 4 Sudoeste 9 Sudoeste 0 -- -- 98
2019-11-29 09:00:00 4.8 7 Sudoeste 9 Sudoeste 0 -- -- 98
2019-11-29 08:00:00 4.6 8 Sudoeste 10 Sudoeste 0 -- -- 97
2019-11-29 07:00:00 5.3 5 Sudoeste 6 Sudoeste 0 -- -- 97
2019-11-29 06:00:00 5.9 0 Calma 5 Sudoeste 0 -- -- 97
2019-11-29 05:00:00 5.5 2 Oeste 12 Sudoeste 0 -- -- 97
2019-11-29 04:00:00 6 12 Sudoeste 15 Sudoeste 0 -- -- 97
2019-11-29 03:00:00 6.2 10 Sudoeste 12 Sudoeste 0 -- -- 97
2019-11-29 02:00:00 6.1 9 Sudoeste 13 Sudoeste 0 -- -- 97
2019-11-29 01:00:00 6.4 10 Sudoeste 11 Sudoeste 0 -- -- 96
2019-11-29 00:00:00 7.1 7 Sudoeste 11 Sudoeste 0 -- -- 96
2019-11-28 23:00:00 7.7 7 Sudoeste 11 Oeste 0 -- -- 96
2019-11-28 22:00:00 8.4 7 Sudoeste 9 Sudoeste 0 -- -- 94
2019-11-28 21:00:00 9.8 5 Sudoeste 7 Sudoeste 0 -- -- 91
2019-11-28 20:00:00 11 4 Sudoeste 7 Este 0 -- -- 87
2019-11-28 19:00:00 11.7 8 Nordeste 14 Nordeste 0 -- -- 83
2019-11-28 18:00:00 12.4 11 Nordeste 22 Nordeste 0 -- -- 81
2019-11-28 17:00:00 13.3 14 Nordeste 23 Nordeste 0 -- -- 78
2019-11-28 16:00:00 14.6 13 Nordeste 21 Norte 0 -- -- 72
2019-11-28 15:00:00 14.8 9 Nordeste 15 Norte 0 -- -- 70
2019-11-28 14:00:00 14.9 8 Nordeste 15 Nordeste 0 -- -- 69
2019-11-28 13:00:00 14.7 6 Sudoeste 13 Sur 0 -- -- 69
2019-11-28 12:00:00 12.6 0 Calma 7 Sudeste 0 -- -- 79
2019-11-28 11:00:00 10.4 3 Sur 8 Sudoeste 0 -- -- 96
2019-11-28 10:00:00 8 4 Sudoeste 8 Sudoeste 0 -- -- 97
2019-11-28 09:00:00 6.7 6 Sudoeste 10 Oeste 0 -- -- 98
2019-11-28 08:00:00 6.9 5 Sudoeste 9 Sudoeste 0 -- -- 96
2019-11-28 07:00:00 7.5 7 Sudoeste 10 Sudoeste 0 -- -- 97
2019-11-28 06:00:00 8.2 7 Sudoeste 10 Sudoeste 0 -- -- 96
2019-11-28 05:00:00 9.2 5 Sudoeste 9 Sudoeste 0 -- -- 93
2019-11-28 04:00:00 10.4 6 Sur 8 Sur 0 -- -- 93
2019-11-28 03:00:00 10.2 4 Sudoeste 10 Sur 0 -- -- 92
2019-11-28 02:00:00 10.7 5 Sur 10 Sur 0 -- -- 92
2019-11-28 01:00:00 10.7 3 Sudoeste 7 Oeste 0 -- -- 92
2019-11-28 00:00:00 10.8 0 Calma 10 Sudoeste 0 -- -- 92
2019-11-27 23:00:00 10.7 6 Sudoeste 9 Sudoeste 0 -- -- 92
2019-11-27 22:00:00 10.9 6 Sur 10 Sudoeste 0 -- -- 90
2019-11-27 21:00:00 11 8 Sudoeste 12 Sur 0 -- -- 89
2019-11-27 20:00:00 11.4 7 Sudoeste 12 Sur 0 -- -- 87
2019-11-27 19:00:00 11.7 11 Sudoeste 12 Sudoeste 0 -- -- 85
2019-11-27 18:00:00 12.8 4 Sur 21 Sudoeste 0 -- -- 79
2019-11-27 17:00:00 14.1 15 Sudoeste 27 Sudoeste 0 -- -- 73
2019-11-27 16:00:00 15 14 Sudoeste 24 Sudoeste 0 -- -- 71
2019-11-27 15:00:00 14.5 17 Sudoeste 32 Oeste 0 -- -- 73
2019-11-27 14:00:00 14.6 19 Sudoeste 29 Sudoeste 0 -- -- 77
2019-11-27 06:00:00 -- -- -- -- -- -- -- -- --
2019-11-27 05:00:00 -- -- -- -- -- -- -- -- --
2019-11-27 04:00:00 -- -- -- -- -- -- -- -- --
2019-11-27 03:00:00 12.4 14 Sudoeste 27 Sudoeste 0.6 -- -- 97
2019-11-27 02:00:00 12.4 14 Sur 23 Sudoeste 1 -- -- 96
2019-11-27 01:00:00 12.5 15 Sudoeste 30 Sudoeste 0.2 -- -- 95
2019-11-27 00:00:00 12.7 23 Sudoeste 33 Sudoeste 0 -- -- 92
2019-11-26 23:00:00 13.4 22 Sudoeste 41 Sudoeste 0 -- -- 85
2019-11-26 22:00:00 13.4 23 Sudoeste 32 Sur 0 -- -- 90
2019-11-26 21:00:00 13.6 14 Sur 27 Sudoeste 0 -- -- 86
2019-11-26 20:00:00 13.9 7 Sur 15 Sur 0 -- -- 90
2019-11-26 19:00:00 14.4 11 Sudoeste 17 Sudoeste 0 -- -- 89
2019-11-26 18:00:00 15.2 13 Sudoeste 17 Sudoeste 0 -- -- 87
2019-11-26 17:00:00 15.5 7 Sur 16 Sudoeste 0 -- -- 86
2019-11-26 16:00:00 15.5 11 Sudoeste 25 Sudoeste 0 -- -- 85
2019-11-26 15:00:00 16.9 9 Sudoeste 23 Sudoeste 0 -- -- 78
2019-11-26 14:00:00 17.5 13 Sur 19 Sudoeste 0 -- -- 79
2019-11-26 13:00:00 16.6 11 Sudoeste 16 Sudoeste 0 -- -- 79
2019-11-26 12:00:00 15.1 7 Sudoeste 14 Sudoeste 0 -- -- 84
2019-11-26 11:00:00 12.8 8 Sudoeste 12 Sudoeste 0 -- -- 95
2019-11-26 10:00:00 10.9 10 Sudoeste 12 Sudoeste 0 -- -- 99
2019-11-26 09:00:00 9.4 9 Sudoeste 13 Sur 0 -- -- 99
2019-11-26 08:00:00 9.2 10 Sudoeste 12 Sudoeste 0 -- -- 98
2019-11-26 07:00:00 9.9 6 Sur 8 Sudoeste 0 -- -- 99
2019-11-26 06:00:00 9.9 8 Sudoeste 10 Sudoeste 0 -- -- 98
2019-11-26 05:00:00 10.5 3 Oeste 6 Sudeste 0 -- -- 98
2019-11-26 04:00:00 10.7 3 Norte 5 Noroeste 0 -- -- 96
2019-11-26 03:00:00 10.6 3 Sudoeste 8 Oeste 0 -- -- 96
2019-11-26 02:00:00 11.6 2 Noroeste 9 Sudoeste 0 -- -- 96
2019-11-26 01:00:00 13 5 Sudoeste 8 Sudoeste 0.2 -- -- 96
2019-11-26 00:00:00 13.3 4 Sudoeste 14 Sudoeste 0 -- -- 96
2019-11-25 23:00:00 13.8 10 Sudoeste 17 Sudoeste 0 -- -- 94
2019-11-25 22:00:00 13.9 7 Sudoeste 16 Sudoeste 0 -- -- 98
2019-11-25 21:00:00 13.8 5 Sudoeste 12 Sudoeste 0.2 -- -- 98
2019-11-25 20:00:00 13.7 8 Sudoeste 18 Sudoeste 0.2 -- -- 98
2019-11-25 19:00:00 13.7 14 Sudoeste 20 Sudoeste 0.2 -- -- 98
2019-11-25 18:00:00 13.8 9 Sudoeste 14 Sudoeste 0.2 -- -- 97
2019-11-25 17:00:00 13.8 10 Sudoeste 17 Sudoeste 0 -- -- 96
2019-11-25 16:00:00 13.8 13 Sudoeste 19 Sur 0 -- -- 96
2019-11-25 15:00:00 13.7 14 Sur 22 Sudoeste 0 -- -- 95
2019-11-25 14:00:00 13.5 18 Sudoeste 29 Sudoeste 0 -- -- 95
2019-11-25 13:00:00 12.8 21 Sudoeste 31 Sudoeste 0 -- -- 96
2019-11-25 12:00:00 13 21 Sudoeste 30 Sudoeste 0 -- -- 97
2019-11-25 11:00:00 11.6 13 Sudoeste 18 Sudoeste 0.2 -- -- 97
2019-11-25 10:00:00 10.5 7 Sur 12 Sur 0.2 -- -- 97
2019-11-25 09:00:00 9.7 7 Sudoeste 9 Sudoeste 0 -- -- 96
2019-11-25 08:00:00 9.6 4 Sudoeste 19 Sudoeste 0 -- -- 94
2019-11-25 07:00:00 9.1 9 Sudoeste 12 Sudoeste 0 -- -- 95
2019-11-25 06:00:00 9.3 9 Sur 12 Sur 0 -- -- 92
2019-11-25 05:00:00 9.5 9 Sur 13 Sur 0 -- -- 90
2019-11-25 04:00:00 9.4 12 Sudoeste 14 Sur 0 -- -- 87
2019-11-25 03:00:00 9.1 10 Sudoeste 18 Sudoeste 0 -- -- 90
2019-11-25 02:00:00 8.5 10 Sudoeste 14 Sur 0 -- -- 89
2019-11-25 01:00:00 8.8 10 Sur 18 Sur 0 -- -- 87
2019-11-25 00:00:00 9.6 13 Sur 15 Sur 0 -- -- 84
2019-11-24 23:00:00 9.6 9 Sur 16 Sur 0 -- -- 83
2019-11-24 22:00:00 9.5 9 Sudoeste 13 Sudoeste 0 -- -- 84
2019-11-24 21:00:00 9.2 10 Sudoeste 12 Sur 0 -- -- 84
2019-11-24 20:00:00 8.7 5 Sur 15 Sudoeste 0 -- -- 84
2019-11-24 19:00:00 9.1 9 Sudoeste 12 Sudoeste 0 -- -- 82
2019-11-24 18:00:00 10.8 3 Sudoeste 20 Noroeste 0 -- -- 73
2019-11-24 17:00:00 11.7 5 Noroeste 19 Norte 0 -- -- 63
2019-11-24 16:00:00 12.2 12 Norte 24 Norte 0 -- -- 63
2019-11-24 15:00:00 12.7 10 Norte 21 Noroeste 0 -- -- 62
2019-11-24 14:00:00 12.2 9 Norte 22 Norte 0 -- -- 58
2019-11-24 13:00:00 11.8 12 Nordeste 19 Nordeste 0 -- -- 69
2019-11-24 12:00:00 10.9 3 Sudeste 8 Nordeste 0 -- -- 74
2019-11-24 11:00:00 9.1 3 Noroeste 5 Noroeste 0 -- -- 79
2019-11-24 10:00:00 7.6 0 Calma 4 Nordeste 0 -- -- 91
2019-11-24 09:00:00 4.3 3 Sudoeste 5 Oeste 0 -- -- 94
2019-11-24 08:00:00 4.5 4 Sur 7 Sudoeste 0 -- -- 93
2019-11-24 07:00:00 5.1 2 Sudeste 12 Sur 0 -- -- 91
2019-11-24 06:00:00 4.8 8 Sur 12 Sur 0 -- -- 95
2019-11-24 05:00:00 4.1 8 Sudoeste 10 Sudoeste 0 -- -- 92
2019-11-24 04:00:00 4.5 8 Sudoeste 16 Oeste 0 -- -- 92
2019-11-24 03:00:00 5.7 3 Sur 12 Noroeste 0 -- -- 86
2019-11-24 02:00:00 6.9 5 Sur 8 Sur 0 -- -- 82
2019-11-24 01:00:00 7.4 5 Sur 12 Sudoeste 0 -- -- 80
2019-11-24 00:00:00 8.7 7 Oeste 19 Oeste 0 -- -- 74
2019-11-23 23:00:00 8.3 3 Sudoeste 11 Sudoeste 0 -- -- 77
2019-11-23 22:00:00 8.7 3 Sudeste 16 Oeste 0 -- -- 74
2019-11-23 21:00:00 9.8 7 Oeste 16 Oeste 0 -- -- 69
2019-11-23 20:00:00 10.6 13 Oeste 30 Oeste 0 -- -- 65
2019-11-23 19:00:00 10.8 15 Noroeste 30 Oeste 0 -- -- 64
2019-11-23 18:00:00 11 10 Noroeste 23 Oeste 0 -- -- 63
2019-11-23 17:00:00 12.1 8 Noroeste 34 Sudoeste 0 -- -- 62
2019-11-23 16:00:00 12.4 21 Oeste 43 Oeste 0 -- -- 63
2019-11-23 15:00:00 12.4 25 Oeste 51 Oeste 0 -- -- 64
2019-11-23 14:00:00 12 13 Oeste 53 Oeste 0 -- -- 64
2019-11-23 13:00:00 11.4 22 Oeste 52 Oeste 0.2 -- -- 66
2019-11-23 12:00:00 10.9 24 Oeste 48 Oeste 0 -- -- 68
2019-11-23 11:00:00 10.4 15 Oeste 54 Noroeste 0 -- -- 70
2019-11-23 10:00:00 9.7 26 Oeste 49 Oeste 0 -- -- 73
2019-11-23 09:00:00 9.5 21 Oeste 38 Noroeste 0 -- -- 75
2019-11-23 08:00:00 9.4 20 Oeste 40 Oeste 0 -- -- 78
2019-11-23 07:00:00 9.3 19 Oeste 47 Oeste 0 -- -- 79
2019-11-23 06:00:00 9.8 25 Oeste 46 Oeste 2.2 -- -- 82
2019-11-23 05:00:00 10 28 Sudoeste 56 Sudoeste 1.2 -- -- 87
2019-11-23 04:00:00 10.9 25 Oeste 78 Oeste 0.4 -- -- 82
2019-11-23 03:00:00 11 36 Sudoeste 64 Oeste 0 -- -- 82
2019-11-23 02:00:00 11.3 30 Sudoeste 60 Sudoeste 0 -- -- 80
2019-11-23 01:00:00 11.4 22 Sudoeste 49 Sudoeste 0 -- -- 81
2019-11-23 00:00:00 11.4 19 Sudoeste 40 Sudoeste 0 -- -- 83
2019-11-22 23:00:00 11.5 15 Sudoeste 33 Sudoeste 0 -- -- 86
2019-11-22 22:00:00 11.7 13 Sudoeste 42 Sudoeste 0 -- -- 89
2019-11-22 21:00:00 12.1 23 Sudoeste 70 Sudoeste 0 -- -- 87
2019-11-22 20:00:00 13.3 35 Sudoeste 71 Sudoeste 3.8 -- -- 95
2019-11-22 19:00:00 15.1 50 Sudoeste 86 Sudoeste 4.6 -- -- 91
2019-11-22 18:00:00 13.3 32 Sudoeste 54 Sudoeste 6 -- -- 94
2019-11-22 17:00:00 13.8 42 Sudoeste 62 Sur 6.4 -- -- 90
2019-11-22 16:00:00 13 19 Sudoeste 42 Sudoeste 4 -- -- 95
2019-11-22 15:00:00 13.1 29 Sudoeste 51 Sudoeste 0.8 -- -- 92
2019-11-22 14:00:00 14.2 28 Sudoeste 56 Sudoeste 0.4 -- -- 84
2019-11-22 13:00:00 13.6 29 Sudoeste 54 Sudoeste 0.8 -- -- 90
2019-11-22 12:00:00 13.7 16 Sudoeste 26 Sudoeste 0 -- -- 91
2019-11-22 11:00:00 12.7 11 Sudoeste 19 Sudoeste 0.4 -- -- 96
2019-11-22 10:00:00 11.9 9 Sudoeste 22 Sur 0 -- -- 95
2019-11-22 09:00:00 11.3 10 Sudoeste 19 Sur 2 -- -- 98
2019-11-22 08:00:00 11 7 Sur 11 Sudeste 2.2 -- -- 98
2019-11-22 07:00:00 11.1 3 Sudoeste 10 Sudoeste 2 -- -- 98
2019-11-22 06:00:00 10.9 8 Sur 10 Sur 0.4 -- -- 97
2019-11-22 05:00:00 10.8 5 Sur 8 Sudeste 2.2 -- -- 97
2019-11-22 04:00:00 10.7 6 Sur 9 Sur 0.2 -- -- 97
2019-11-22 03:00:00 10.6 7 Sur 13 Sudoeste 1.2 -- -- 97
2019-11-22 02:00:00 10.8 9 Sudoeste 19 Sudoeste 0 -- -- 94
2019-11-22 01:00:00 10.9 12 Sudoeste 17 Sudoeste 0.2 -- -- 95
2019-11-22 00:00:00 10.9 8 Sudoeste 15 Sudoeste 0 -- -- 96
2019-11-21 23:00:00 10.5 5 Sudoeste 8 Sur 0.6 -- -- 97
2019-11-21 22:00:00 10.5 0 Calma 7 Sur 0.6 -- -- 97
2019-11-21 21:00:00 10.5 4 Sur 10 Sur 1.6 -- -- 97
2019-11-21 20:00:00 10.4 2 Sur 13 Sur 2.2 -- -- 96
2019-11-21 19:00:00 10.6 6 Sudoeste 11 Sur 2.8 -- -- 96
2019-11-21 18:00:00 11 4 Sudeste 12 Este 2.8 -- -- 97
2019-11-21 17:00:00 11.2 6 Nordeste 8 Nordeste 5 -- -- 96
2019-11-21 16:00:00 11.9 2 Norte 10 Oeste 2.8 -- -- 93
2019-11-21 15:00:00 12.2 5 Sudoeste 8 Oeste 0.4 -- -- 88
2019-11-21 14:00:00 11.9 7 Sudoeste 20 Sudoeste 0 -- -- 88
2019-11-21 13:00:00 11.2 14 Sudoeste 24 Sudoeste 0.2 -- -- 89
2019-11-21 12:00:00 11 12 Sudoeste 17 Sudoeste 0 -- -- 93
2019-11-21 11:00:00 10.4 7 Sudoeste 9 Sur 0.2 -- -- 96
2019-11-21 10:00:00 9.8 4 Sudoeste 9 Sur 0.2 -- -- 96
2019-11-21 09:00:00 9.4 10 Sur 15 Sudoeste 0.4 -- -- 97
2019-11-21 08:00:00 9 6 Sudoeste 15 Sudoeste 0 -- -- 96
2019-11-21 07:00:00 8.9 7 Sur 10 Sudoeste 1.2 -- -- 97
2019-11-21 06:00:00 8.7 7 Sudoeste 13 Sudoeste 0.2 -- -- 97
2019-11-21 05:00:00 8.2 6 Sudoeste 14 Sudoeste 2.2 -- -- 97
2019-11-21 04:00:00 8 9 Sudoeste 11 Sudoeste 2.4 -- -- 97
2019-11-21 03:00:00 8 8 Sur 11 Sur 2 -- -- 96
2019-11-21 02:00:00 8.1 9 Sudoeste 22 Sudoeste 1.2 -- -- 95
2019-11-21 01:00:00 8.6 18 Sudoeste 25 Sudoeste 0.2 -- -- 91
2019-11-21 00:00:00 8.8 13 Sudoeste 17 Sudoeste 0 -- -- 91
2019-11-20 23:00:00 8.8 10 Sur 20 Sudoeste 0 -- -- 91
2019-11-20 22:00:00 9 15 Sudoeste 21 Sudoeste 0 -- -- 91
2019-11-20 21:00:00 9.1 12 Sudoeste 17 Sudoeste 0 -- -- 91
2019-11-20 20:00:00 9 8 Sudoeste 15 Sudoeste 0.2 -- -- 91
2019-11-20 19:00:00 8.9 7 Sudoeste 26 Sur 0.6 -- -- 90
2019-11-20 18:00:00 8.5 5 Sur 18 Sudoeste 1.4 -- -- 91
2019-11-20 17:00:00 9.1 9 Sur 13 Sur 0 -- -- 84
2019-11-20 16:00:00 8.8 7 Sudoeste 18 Sudeste 1 -- -- 86
2019-11-20 15:00:00 9.5 6 Sudeste 10 Sudeste 0 -- -- 71
2019-11-20 14:00:00 9.4 8 Sudeste 16 Sudoeste 0 -- -- 69
2019-11-20 13:00:00 10.4 11 Sudoeste 22 Sudoeste 0 -- -- 54
2019-11-20 12:00:00 10.4 17 Sudoeste 24 Sudoeste 0 -- -- 61
2019-11-20 11:00:00 8.5 3 Sur 8 Sudoeste 0 -- -- 84
2019-11-20 10:00:00 5 2 Sur 9 Sudoeste 0 -- -- 97
2019-11-20 09:00:00 2.2 3 Sudoeste 12 Sudoeste 0 -- -- 98
2019-11-20 08:00:00 1.5 7 Sudoeste 13 Sudoeste 0 -- -- 97
2019-11-20 07:00:00 1.6 8 Sudoeste 13 Sudoeste 0 -- -- 97
2019-11-20 06:00:00 1.9 8 Sudoeste 11 Sudoeste 0 -- -- 97
2019-11-20 05:00:00 2.5 9 Sudoeste 11 Sudoeste 0 -- -- 97
2019-11-20 04:00:00 2.8 9 Sudoeste 20 Sudoeste 0 -- -- 95
2019-11-20 03:00:00 3.2 12 Sudoeste 14 Sudoeste 0 -- -- 96
2019-11-20 02:00:00 4.2 10 Sudoeste 12 Sudoeste 0 -- -- 95
2019-11-20 01:00:00 5 11 Sudoeste 13 Sudoeste 0 -- -- 94
2019-11-20 00:00:00 5.4 10 Sudoeste 12 Sudoeste 0 -- -- 94
2019-11-19 23:00:00 5.9 5 Sudoeste 9 Sudoeste 0 -- -- 92
2019-11-19 22:00:00 6.3 6 Sudoeste 7 Sudoeste 0 -- -- 89
2019-11-19 21:00:00 6.5 3 Norte 8 Sudoeste 0 -- -- 87
2019-11-19 20:00:00 7.3 5 Sudoeste 8 Nordeste 0 -- -- 82
2019-11-19 19:00:00 7.7 8 Nordeste 13 Nordeste 0 -- -- 78
2019-11-19 18:00:00 9 9 Nordeste 17 Nordeste 0 -- -- 75
2019-11-19 17:00:00 11 13 Nordeste 21 Norte 0 -- -- 67
2019-11-19 16:00:00 11.7 12 Nordeste 22 Norte 0 -- -- 66
2019-11-19 15:00:00 12.4 12 Nordeste 21 Nordeste 0 -- -- 65
2019-11-19 14:00:00 12.2 12 Nordeste 20 Nordeste 0 -- -- 62
2019-11-19 13:00:00 11.9 6 Nordeste 12 Nordeste 0 -- -- 58
2019-11-19 12:00:00 10.7 4 Nordeste 5 Nordeste 0 -- -- 73
2019-11-19 11:00:00 7.5 0 Calma 6 Sudoeste 0 -- -- 92
2019-11-19 10:00:00 3.9 4 Sudoeste 9 Sudoeste 0 -- -- 98
2019-11-19 09:00:00 2.5 8 Sudoeste 12 Sudoeste 0 -- -- 97
2019-11-19 08:00:00 2 6 Sudoeste 12 Oeste 0 -- -- 97
2019-11-19 07:00:00 2 9 Sudoeste 12 Sudoeste 0 -- -- 97
2019-11-19 06:00:00 1.8 8 Sudoeste 13 Sudoeste 0 -- -- 97
2019-11-19 05:00:00 1.8 13 Sudoeste 14 Sudoeste 0 -- -- 97
2019-11-19 04:00:00 1.7 10 Sudoeste 12 Sudoeste 0 -- -- 96
2019-11-19 03:00:00 2.4 8 Sudoeste 10 Sudoeste 0 -- -- 95
2019-11-19 02:00:00 2.6 5 Sudoeste 10 Sudoeste 0 -- -- 95
2019-11-19 01:00:00 2.7 6 Sudoeste 10 Sudoeste 0 -- -- 94
2019-11-19 00:00:00 3.4 8 Sudoeste 12 Sudoeste 0 -- -- 93
2019-11-18 23:00:00 3.9 8 Sudoeste 12 Sudoeste 0 -- -- 94
2019-11-18 22:00:00 4 8 Sudoeste 10 Sudoeste 0 -- -- 92
2019-11-18 21:00:00 5.1 8 Sudoeste 12 Sudoeste 0 -- -- 91
2019-11-18 20:00:00 6.2 9 Sudoeste 10 Sudoeste 0 -- -- 87
2019-11-18 19:00:00 8.3 3 Sur 8 Noroeste 0 -- -- 76
2019-11-18 18:00:00 9.7 2 Norte 16 Norte 0 -- -- 68
2019-11-18 17:00:00 10.8 12 Norte 28 Norte 0 -- -- 65
2019-11-18 16:00:00 11.1 16 Norte 25 Norte 0 -- -- 66
2019-11-18 15:00:00 10.9 14 Norte 25 Norte 0 -- -- 68
2019-11-18 14:00:00 10.1 12 Norte 24 Norte 0 -- -- 72
2019-11-18 13:00:00 9.6 13 Norte 25 Nordeste 0 -- -- 74
2019-11-18 12:00:00 9.1 10 Norte 25 Norte 0 -- -- 78
2019-11-18 11:00:00 8.7 15 Norte 24 Norte 0 -- -- 79
2019-11-18 10:00:00 7.3 10 Nordeste 17 Nordeste 0 -- -- 86
2019-11-18 09:00:00 6.5 4 Este 18 Oeste 0 -- -- 88
2019-11-18 08:00:00 6.7 7 Sur 27 Noroeste 0 -- -- 84
2019-11-18 07:00:00 7.4 5 Sudeste 32 Nordeste 0 -- -- 86
2019-11-18 06:00:00 9 14 Norte 52 Norte 0 -- -- 80
2019-11-18 05:00:00 10.3 19 Noroeste 43 Noroeste 1.4 -- -- 84
2019-11-18 04:00:00 10.1 14 Sur 46 Sudoeste 1 -- -- 94
2019-11-18 03:00:00 11 30 Sudoeste 54 Sudoeste 0.4 -- -- 89
2019-11-18 02:00:00 11.1 32 Sudoeste 58 Sudoeste 5 -- -- 92
2019-11-18 01:00:00 10.7 21 Sudoeste 44 Sudoeste 3 -- -- 95
2019-11-18 00:00:00 11.4 30 Sudoeste 58 Sudoeste 1.6 -- -- 92
2019-11-17 23:00:00 11.7 17 Sudoeste 47 Oeste 0 -- -- 92
2019-11-17 22:00:00 10.6 17 Sudoeste 33 Sudoeste 1.2 -- -- 95
2019-11-17 21:00:00 10.4 23 Sudoeste 33 Sudoeste 1.6 -- -- 97
2019-11-17 20:00:00 9.7 13 Sudoeste 23 Sudoeste 1.2 -- -- 97
2019-11-17 19:00:00 9.4 18 Sudoeste 24 Sudoeste 0.4 -- -- 97
2019-11-17 18:00:00 8.8 16 Sudoeste 27 Sudoeste 0.4 -- -- 97
2019-11-17 17:00:00 8.8 20 Sudoeste 30 Sudoeste 0.2 -- -- 96
2019-11-17 16:00:00 8.6 21 Sudoeste 33 Sudoeste 0 -- -- 95
2019-11-17 15:00:00 7.8 23 Sudoeste 31 Sudoeste 0 -- -- 95
2019-11-17 14:00:00 7.2 24 Sudoeste 31 Sudoeste 0 -- -- 94
2019-11-17 13:00:00 6.3 21 Sudoeste 27 Sudoeste 0 -- -- 93
2019-11-17 12:00:00 5.8 19 Sur 26 Sudoeste 0.2 -- -- 91
2019-11-17 11:00:00 5.9 20 Sudoeste 30 Sudoeste 0 -- -- 87
2019-11-17 10:00:00 4.8 7 Sudoeste 12 Sudoeste 0 -- -- 86
2019-11-17 09:00:00 1.9 8 Sudoeste 12 Sudoeste 0 -- -- 92
2019-11-17 08:00:00 1.6 5 Sudoeste 13 Sudoeste 0 -- -- 89
2019-11-17 07:00:00 1.5 9 Sudoeste 10 Sudoeste 0 -- -- 89
2019-11-17 06:00:00 2 9 Sudoeste 13 Sudoeste 0 -- -- 86
2019-11-17 05:00:00 1 10 Sudoeste 12 Sudoeste 0 -- -- 90
2019-11-17 04:00:00 1.7 9 Sudoeste 17 Sudoeste 0 -- -- 88
2019-11-17 03:00:00 2.4 12 Sudoeste 14 Sudoeste 0 -- -- 84
2019-11-17 02:00:00 3.2 11 Sudoeste 15 Sudoeste 0 -- -- 80
2019-11-17 01:00:00 2.4 9 Sudoeste 12 Sudoeste 0 -- -- 84
2019-11-17 00:00:00 3 9 Sudoeste 12 Sudoeste 0 -- -- 82
2019-11-16 23:00:00 3.6 8 Sudoeste 13 Sur 0 -- -- 79
2019-11-16 22:00:00 4.6 7 Sudoeste 14 Sudoeste 0 -- -- 75
2019-11-16 21:00:00 5 8 Sudoeste 12 Sudoeste 0 -- -- 73
2019-11-16 20:00:00 5.5 9 Sur 13 Sur 0 -- -- 72
2019-11-16 19:00:00 6.7 10 Sur 14 Sur 0 -- -- 67
2019-11-16 18:00:00 9 9 Sudoeste 13 Sudoeste 0 -- -- 57
2019-11-16 17:00:00 10.4 5 Norte 27 Norte 0 -- -- 50
2019-11-16 16:00:00 10.5 9 Norte 23 Norte 0 -- -- 48
2019-11-16 15:00:00 10.3 17 Norte 26 Norte 0 -- -- 49
2019-11-16 14:00:00 10.3 7 Norte 18 Norte 0 -- -- 51
2019-11-16 13:00:00 9.7 9 Nordeste 18 Nordeste 0 -- -- 55
2019-11-16 12:00:00 8.6 3 Nordeste 9 Nordeste 0 -- -- 63
2019-11-16 11:00:00 5.7 5 Sudoeste 11 Sudoeste 0 -- -- 80
2019-11-16 10:00:00 2.3 4 Sudoeste 7 Sudoeste 0 -- -- 90
2019-11-16 09:00:00 -0.2 4 Sudoeste 7 Sudoeste 0 -- -- 95
2019-11-16 08:00:00 -0.6 5 Noroeste 8 Noroeste 0 -- -- 95
2019-11-16 07:00:00 0.1 4 Sudoeste 6 Sudoeste 0 -- -- 94
2019-11-16 06:00:00 0.7 3 Sudoeste 9 Sudoeste 0 -- -- 95
2019-11-16 05:00:00 0.7 6 Sudoeste 9 Sudoeste 0 -- -- 93
2019-11-16 04:00:00 1.2 0 Calma 5 Sudoeste 0 -- -- 92
2019-11-16 03:00:00 1.3 4 Sudoeste 11 Sudoeste 0 -- -- 95
2019-11-16 02:00:00 1.5 8 Sudoeste 10 Sudoeste 0 -- -- 94
2019-11-16 01:00:00 2 7 Sudoeste 8 Sudoeste 0 -- -- 92
2019-11-16 00:00:00 2.8 3 Sudoeste 4 Oeste 0 -- -- 89